sensor_id;sensor_type;location;lat;lon;timestamp;P1;durP1;ratioP1;P2;durP2;ratioP2
24407;SDS011;12542;50.924;4.516;2022-11-14T00:00:26;35.08;;;20.88;;
24407;SDS011;12542;50.924;4.516;2022-11-14T00:02:53;37.17;;;23.67;;
24407;SDS011;12542;50.924;4.516;2022-11-14T00:05:24;39.80;;;25.45;;
24407;SDS011;12542;50.924;4.516;2022-11-14T00:07:50;48.08;;;27.98;;
24407;SDS011;12542;50.924;4.516;2022-11-14T00:10:16;47.35;;;27.70;;
24407;SDS011;12542;50.924;4.516;2022-11-14T00:12:42;42.50;;;27.20;;
24407;SDS011;12542;50.924;4.516;2022-11-14T00:15:08;46.17;;;27.30;;
24407;SDS011;12542;50.924;4.516;2022-11-14T00:17:34;44.13;;;27.95;;
24407;SDS011;12542;50.924;4.516;2022-11-14T00:20:01;44.05;;;26.67;;
24407;SDS011;12542;50.924;4.516;2022-11-14T00:22:29;43.97;;;26.40;;
24407;SDS011;12542;50.924;4.516;2022-11-14T00:24:57;43.95;;;25.63;;
24407;SDS011;12542;50.924;4.516;2022-11-14T00:27:25;47.58;;;26.60;;
24407;SDS011;12542;50.924;4.516;2022-11-14T00:29:53;49.85;;;28.42;;
24407;SDS011;12542;50.924;4.516;2022-11-14T00:32:19;43.88;;;29.65;;
24407;SDS011;12542;50.924;4.516;2022-11-14T00:34:46;47.95;;;29.27;;
24407;SDS011;12542;50.924;4.516;2022-11-14T00:37:12;47.40;;;28.85;;
24407;SDS011;12542;50.924;4.516;2022-11-14T00:39:38;47.22;;;28.17;;
24407;SDS011;12542;50.924;4.516;2022-11-14T00:42:04;45.53;;;27.10;;
24407;SDS011;12542;50.924;4.516;2022-11-14T00:44:30;46.50;;;26.60;;
24407;SDS011;12542;50.924;4.516;2022-11-14T00:46:58;54.15;;;27.77;;
24407;SDS011;12542;50.924;4.516;2022-11-14T00:49:24;52.22;;;28.52;;
24407;SDS011;12542;50.924;4.516;2022-11-14T00:51:50;43.70;;;26.15;;
24407;SDS011;12542;50.924;4.516;2022-11-14T00:54:15;42.40;;;22.45;;
24407;SDS011;12542;50.924;4.516;2022-11-14T00:56:41;32.88;;;22.02;;
24407;SDS011;12542;50.924;4.516;2022-11-14T00:59:09;42.20;;;22.55;;
24407;SDS011;12542;50.924;4.516;2022-11-14T01:01:34;32.47;;;20.50;;
24407;SDS011;12542;50.924;4.516;2022-11-14T01:04:00;33.65;;;20.73;;
24407;SDS011;12542;50.924;4.516;2022-11-14T01:06:26;32.60;;;20.27;;
24407;SDS011;12542;50.924;4.516;2022-11-14T01:08:52;33.35;;;20.98;;
24407;SDS011;12542;50.924;4.516;2022-11-14T01:11:19;31.48;;;18.83;;
24407;SDS011;12542;50.924;4.516;2022-11-14T01:13:46;31.80;;;19.60;;
24407;SDS011;12542;50.924;4.516;2022-11-14T01:16:13;30.58;;;18.80;;
24407;SDS011;12542;50.924;4.516;2022-11-14T01:18:39;33.17;;;20.10;;
24407;SDS011;12542;50.924;4.516;2022-11-14T01:21:06;32.90;;;19.23;;
24407;SDS011;12542;50.924;4.516;2022-11-14T01:23:36;27.27;;;17.27;;
24407;SDS011;12542;50.924;4.516;2022-11-14T01:26:06;26.50;;;16.58;;
24407;SDS011;12542;50.924;4.516;2022-11-14T01:28:38;24.67;;;15.90;;
24407;SDS011;12542;50.924;4.516;2022-11-14T01:33:35;22.95;;;14.30;;
24407;SDS011;12542;50.924;4.516;2022-11-14T01:36:01;24.73;;;15.23;;
24407;SDS011;12542;50.924;4.516;2022-11-14T01:38:28;23.98;;;14.35;;
24407;SDS011;12542;50.924;4.516;2022-11-14T01:40:54;19.17;;;14.13;;
24407;SDS011;12542;50.924;4.516;2022-11-14T01:54:06;25.10;;;13.32;;
24407;SDS011;12542;50.924;4.516;2022-11-14T01:56:42;23.05;;;13.23;;
24407;SDS011;12542;50.924;4.516;2022-11-14T01:59:17;18.23;;;11.98;;
24407;SDS011;12542;50.924;4.516;2022-11-14T02:01:47;21.70;;;13.35;;
24407;SDS011;12542;50.924;4.516;2022-11-14T02:04:16;22.15;;;12.80;;
24407;SDS011;12542;50.924;4.516;2022-11-14T02:06:47;19.10;;;12.68;;
24407;SDS011;12542;50.924;4.516;2022-11-14T02:09:14;21.30;;;13.95;;
24407;SDS011;12542;50.924;4.516;2022-11-14T02:11:42;22.73;;;13.90;;
24407;SDS011;12542;50.924;4.516;2022-11-14T02:14:09;22.13;;;12.85;;
24407;SDS011;12542;50.924;4.516;2022-11-14T02:16:35;18.98;;;13.00;;
24407;SDS011;12542;50.924;4.516;2022-11-14T02:19:04;23.35;;;12.73;;
24407;SDS011;12542;50.924;4.516;2022-11-14T02:21:29;21.35;;;13.38;;
24407;SDS011;12542;50.924;4.516;2022-11-14T02:23:55;18.92;;;12.25;;
24407;SDS011;12542;50.924;4.516;2022-11-14T02:26:21;20.40;;;12.80;;
24407;SDS011;12542;50.924;4.516;2022-11-14T02:28:50;21.00;;;13.07;;
24407;SDS011;12542;50.924;4.516;2022-11-14T02:31:19;18.42;;;13.10;;
24407;SDS011;12542;50.924;4.516;2022-11-14T02:33:45;17.95;;;12.38;;
24407;SDS011;12542;50.924;4.516;2022-11-14T02:36:10;20.42;;;12.63;;
24407;SDS011;12542;50.924;4.516;2022-11-14T02:38:36;22.23;;;12.85;;
24407;SDS011;12542;50.924;4.516;2022-11-14T02:41:02;20.67;;;12.07;;
24407;SDS011;12542;50.924;4.516;2022-11-14T02:43:28;21.52;;;12.40;;
24407;SDS011;12542;50.924;4.516;2022-11-14T02:45:53;21.17;;;12.73;;
24407;SDS011;12542;50.924;4.516;2022-11-14T02:48:19;19.40;;;12.13;;
24407;SDS011;12542;50.924;4.516;2022-11-14T02:50:47;19.65;;;11.90;;
24407;SDS011;12542;50.924;4.516;2022-11-14T02:53:13;17.10;;;11.13;;
24407;SDS011;12542;50.924;4.516;2022-11-14T02:55:41;19.45;;;12.10;;
24407;SDS011;12542;50.924;4.516;2022-11-14T02:58:07;18.20;;;12.50;;
24407;SDS011;12542;50.924;4.516;2022-11-14T03:00:33;18.30;;;11.38;;
24407;SDS011;12542;50.924;4.516;2022-11-14T03:02:58;17.30;;;11.00;;
24407;SDS011;12542;50.924;4.516;2022-11-14T03:05:24;19.02;;;11.55;;
24407;SDS011;12542;50.924;4.516;2022-11-14T03:07:53;18.25;;;12.27;;
24407;SDS011;12542;50.924;4.516;2022-11-14T03:10:20;21.15;;;12.07;;
24407;SDS011;12542;50.924;4.516;2022-11-14T03:12:51;21.98;;;12.65;;
24407;SDS011;12542;50.924;4.516;2022-11-14T03:15:19;20.15;;;12.20;;
24407;SDS011;12542;50.924;4.516;2022-11-14T03:17:45;17.50;;;11.25;;
24407;SDS011;12542;50.924;4.516;2022-11-14T03:20:10;21.20;;;12.30;;
24407;SDS011;12542;50.924;4.516;2022-11-14T03:22:36;20.15;;;12.52;;
24407;SDS011;12542;50.924;4.516;2022-11-14T03:25:02;18.48;;;12.00;;
24407;SDS011;12542;50.924;4.516;2022-11-14T03:27:28;19.05;;;12.07;;
24407;SDS011;12542;50.924;4.516;2022-11-14T03:29:53;21.23;;;11.80;;
24407;SDS011;12542;50.924;4.516;2022-11-14T03:32:20;21.35;;;11.82;;
24407;SDS011;12542;50.924;4.516;2022-11-14T03:34:46;21.42;;;12.27;;
24407;SDS011;12542;50.924;4.516;2022-11-14T03:37:12;22.95;;;13.13;;
24407;SDS011;12542;50.924;4.516;2022-11-14T03:39:38;21.67;;;12.85;;
24407;SDS011;12542;50.924;4.516;2022-11-14T03:42:04;22.33;;;13.00;;
24407;SDS011;12542;50.924;4.516;2022-11-14T03:44:30;23.27;;;13.30;;
24407;SDS011;12542;50.924;4.516;2022-11-14T03:46:56;22.17;;;13.25;;
24407;SDS011;12542;50.924;4.516;2022-11-14T03:49:21;21.75;;;13.52;;
24407;SDS011;12542;50.924;4.516;2022-11-14T03:51:47;24.15;;;14.00;;
24407;SDS011;12542;50.924;4.516;2022-11-14T03:54:13;23.15;;;14.05;;
24407;SDS011;12542;50.924;4.516;2022-11-14T03:56:39;24.25;;;14.07;;
24407;SDS011;12542;50.924;4.516;2022-11-14T03:59:05;22.08;;;14.13;;
24407;SDS011;12542;50.924;4.516;2022-11-14T04:01:31;25.45;;;14.07;;
24407;SDS011;12542;50.924;4.516;2022-11-14T04:03:57;24.85;;;13.85;;
24407;SDS011;12542;50.924;4.516;2022-11-14T04:06:23;23.30;;;13.82;;
24407;SDS011;12542;50.924;4.516;2022-11-14T04:08:50;22.70;;;12.90;;
24407;SDS011;12542;50.924;4.516;2022-11-14T04:11:17;19.88;;;13.45;;
24407;SDS011;12542;50.924;4.516;2022-11-14T04:13:42;24.30;;;13.77;;
24407;SDS011;12542;50.924;4.516;2022-11-14T04:16:09;22.80;;;12.45;;
24407;SDS011;12542;50.924;4.516;2022-11-14T04:18:36;23.85;;;14.10;;
24407;SDS011;12542;50.924;4.516;2022-11-14T04:21:03;25.95;;;14.27;;
24407;SDS011;12542;50.924;4.516;2022-11-14T04:23:29;28.95;;;13.50;;
24407;SDS011;12542;50.924;4.516;2022-11-14T04:25:55;24.38;;;14.77;;
24407;SDS011;12542;50.924;4.516;2022-11-14T04:28:21;28.00;;;14.93;;
24407;SDS011;12542;50.924;4.516;2022-11-14T04:30:46;32.20;;;15.48;;
24407;SDS011;12542;50.924;4.516;2022-11-14T04:33:12;25.17;;;14.60;;
24407;SDS011;12542;50.924;4.516;2022-11-14T04:35:38;21.48;;;12.77;;
24407;SDS011;12542;50.924;4.516;2022-11-14T04:38:04;21.98;;;13.23;;
24407;SDS011;12542;50.924;4.516;2022-11-14T04:40:32;26.63;;;14.13;;
24407;SDS011;12542;50.924;4.516;2022-11-14T04:42:58;24.92;;;14.57;;
24407;SDS011;12542;50.924;4.516;2022-11-14T04:45:24;23.02;;;13.43;;
24407;SDS011;12542;50.924;4.516;2022-11-14T04:47:49;24.92;;;14.15;;
24407;SDS011;12542;50.924;4.516;2022-11-14T04:50:15;25.48;;;13.27;;
24407;SDS011;12542;50.924;4.516;2022-11-14T04:52:41;25.10;;;14.10;;
24407;SDS011;12542;50.924;4.516;2022-11-14T04:55:07;24.83;;;13.90;;
24407;SDS011;12542;50.924;4.516;2022-11-14T04:57:33;21.95;;;13.15;;
24407;SDS011;12542;50.924;4.516;2022-11-14T04:59:58;24.05;;;12.95;;
24407;SDS011;12542;50.924;4.516;2022-11-14T05:02:24;25.23;;;13.38;;
24407;SDS011;12542;50.924;4.516;2022-11-14T05:04:49;24.42;;;12.95;;
24407;SDS011;12542;50.924;4.516;2022-11-14T05:07:15;20.63;;;12.68;;
24407;SDS011;12542;50.924;4.516;2022-11-14T05:09:41;21.50;;;12.90;;
24407;SDS011;12542;50.924;4.516;2022-11-14T05:12:06;20.52;;;13.25;;
24407;SDS011;12542;50.924;4.516;2022-11-14T05:14:32;21.88;;;14.20;;
24407;SDS011;12542;50.924;4.516;2022-11-14T05:16:58;21.05;;;12.93;;
24407;SDS011;12542;50.924;4.516;2022-11-14T05:19:24;25.90;;;13.98;;
24407;SDS011;12542;50.924;4.516;2022-11-14T05:21:52;32.10;;;14.63;;
24407;SDS011;12542;50.924;4.516;2022-11-14T05:24:17;22.33;;;13.30;;
24407;SDS011;12542;50.924;4.516;2022-11-14T05:26:43;30.40;;;13.52;;
24407;SDS011;12542;50.924;4.516;2022-11-14T05:29:09;21.95;;;13.95;;
24407;SDS011;12542;50.924;4.516;2022-11-14T05:31:35;22.50;;;13.63;;
24407;SDS011;12542;50.924;4.516;2022-11-14T05:34:01;22.83;;;13.88;;
24407;SDS011;12542;50.924;4.516;2022-11-14T05:36:26;20.02;;;14.00;;
24407;SDS011;12542;50.924;4.516;2022-11-14T05:38:52;23.48;;;14.13;;
24407;SDS011;12542;50.924;4.516;2022-11-14T05:41:18;20.35;;;12.93;;
24407;SDS011;12542;50.924;4.516;2022-11-14T05:43:44;23.75;;;13.88;;
24407;SDS011;12542;50.924;4.516;2022-11-14T05:46:11;22.17;;;14.05;;
24407;SDS011;12542;50.924;4.516;2022-11-14T05:48:38;23.65;;;12.88;;
24407;SDS011;12542;50.924;4.516;2022-11-14T05:51:05;21.35;;;13.63;;
24407;SDS011;12542;50.924;4.516;2022-11-14T05:53:31;23.48;;;14.15;;
24407;SDS011;12542;50.924;4.516;2022-11-14T05:56:04;27.35;;;15.55;;
24407;SDS011;12542;50.924;4.516;2022-11-14T05:58:32;24.85;;;14.45;;
24407;SDS011;12542;50.924;4.516;2022-11-14T06:01:09;25.70;;;15.43;;
24407;SDS011;12542;50.924;4.516;2022-11-14T06:03:40;25.75;;;15.20;;
24407;SDS011;12542;50.924;4.516;2022-11-14T06:06:08;25.20;;;15.25;;
24407;SDS011;12542;50.924;4.516;2022-11-14T06:08:36;31.00;;;15.13;;
24407;SDS011;12542;50.924;4.516;2022-11-14T06:11:03;28.08;;;17.02;;
24407;SDS011;12542;50.924;4.516;2022-11-14T06:13:30;30.08;;;15.90;;
24407;SDS011;12542;50.924;4.516;2022-11-14T06:16:08;30.10;;;17.50;;
24407;SDS011;12542;50.924;4.516;2022-11-14T06:18:36;29.20;;;16.33;;
24407;SDS011;12542;50.924;4.516;2022-11-14T06:21:09;32.58;;;17.85;;
24407;SDS011;12542;50.924;4.516;2022-11-14T06:23:39;33.42;;;18.58;;
24407;SDS011;12542;50.924;4.516;2022-11-14T06:26:05;32.17;;;19.13;;
24407;SDS011;12542;50.924;4.516;2022-11-14T06:28:36;37.53;;;19.38;;
24407;SDS011;12542;50.924;4.516;2022-11-14T06:31:03;31.63;;;17.60;;
24407;SDS011;12542;50.924;4.516;2022-11-14T06:33:32;37.05;;;17.85;;
24407;SDS011;12542;50.924;4.516;2022-11-14T06:36:01;29.13;;;16.15;;
24407;SDS011;12542;50.924;4.516;2022-11-14T06:38:32;29.90;;;16.58;;
24407;SDS011;12542;50.924;4.516;2022-11-14T06:41:03;26.95;;;17.42;;
24407;SDS011;12542;50.924;4.516;2022-11-14T06:43:35;28.63;;;16.75;;
24407;SDS011;12542;50.924;4.516;2022-11-14T06:46:05;27.75;;;16.10;;
24407;SDS011;12542;50.924;4.516;2022-11-14T06:48:33;33.03;;;19.58;;
24407;SDS011;12542;50.924;4.516;2022-11-14T06:51:00;35.78;;;18.30;;
24407;SDS011;12542;50.924;4.516;2022-11-14T06:53:28;39.65;;;22.33;;
24407;SDS011;12542;50.924;4.516;2022-11-14T06:55:56;28.77;;;16.98;;
24407;SDS011;12542;50.924;4.516;2022-11-14T06:58:27;28.40;;;16.15;;
24407;SDS011;12542;50.924;4.516;2022-11-14T07:00:54;26.42;;;15.20;;
24407;SDS011;12542;50.924;4.516;2022-11-14T07:03:21;31.80;;;18.17;;
24407;SDS011;12542;50.924;4.516;2022-11-14T07:05:47;24.73;;;13.45;;
24407;SDS011;12542;50.924;4.516;2022-11-14T07:08:14;20.92;;;12.52;;
24407;SDS011;12542;50.924;4.516;2022-11-14T07:10:40;22.73;;;13.57;;
24407;SDS011;12542;50.924;4.516;2022-11-14T07:13:06;25.38;;;13.07;;
24407;SDS011;12542;50.924;4.516;2022-11-14T07:15:34;20.48;;;12.73;;
24407;SDS011;12542;50.924;4.516;2022-11-14T07:18:00;24.88;;;13.82;;
24407;SDS011;12542;50.924;4.516;2022-11-14T07:20:25;22.60;;;14.18;;
24407;SDS011;12542;50.924;4.516;2022-11-14T07:22:51;26.85;;;13.60;;
24407;SDS011;12542;50.924;4.516;2022-11-14T07:25:19;22.38;;;13.45;;
24407;SDS011;12542;50.924;4.516;2022-11-14T07:27:47;24.80;;;14.60;;
24407;SDS011;12542;50.924;4.516;2022-11-14T07:30:13;26.88;;;14.90;;
24407;SDS011;12542;50.924;4.516;2022-11-14T07:32:39;23.52;;;13.65;;
24407;SDS011;12542;50.924;4.516;2022-11-14T07:35:05;16.98;;;12.18;;
24407;SDS011;12542;50.924;4.516;2022-11-14T07:37:32;19.30;;;12.60;;
24407;SDS011;12542;50.924;4.516;2022-11-14T07:39:58;23.27;;;12.82;;
24407;SDS011;12542;50.924;4.516;2022-11-14T07:42:27;26.70;;;11.95;;
24407;SDS011;12542;50.924;4.516;2022-11-14T07:44:53;17.40;;;11.20;;
24407;SDS011;12542;50.924;4.516;2022-11-14T07:47:19;18.08;;;11.27;;
24407;SDS011;12542;50.924;4.516;2022-11-14T07:49:45;17.45;;;11.02;;
24407;SDS011;12542;50.924;4.516;2022-11-14T07:52:10;15.50;;;10.98;;
24407;SDS011;12542;50.924;4.516;2022-11-14T07:54:36;16.67;;;11.38;;
24407;SDS011;12542;50.924;4.516;2022-11-14T07:57:02;16.77;;;10.43;;
24407;SDS011;12542;50.924;4.516;2022-11-14T07:59:28;16.23;;;10.10;;
24407;SDS011;12542;50.924;4.516;2022-11-14T08:01:56;19.67;;;11.23;;
24407;SDS011;12542;50.924;4.516;2022-11-14T08:04:22;16.60;;;11.43;;
24407;SDS011;12542;50.924;4.516;2022-11-14T08:06:48;16.67;;;10.65;;
24407;SDS011;12542;50.924;4.516;2022-11-14T08:09:14;18.90;;;11.30;;
24407;SDS011;12542;50.924;4.516;2022-11-14T08:11:40;15.90;;;10.68;;
24407;SDS011;12542;50.924;4.516;2022-11-14T08:14:11;15.48;;;9.52;;
24407;SDS011;12542;50.924;4.516;2022-11-14T08:16:37;15.13;;;10.00;;
24407;SDS011;12542;50.924;4.516;2022-11-14T08:19:03;15.43;;;10.18;;
24407;SDS011;12542;50.924;4.516;2022-11-14T08:21:29;15.90;;;10.35;;
24407;SDS011;12542;50.924;4.516;2022-11-14T08:23:58;17.00;;;11.23;;
24407;SDS011;12542;50.924;4.516;2022-11-14T08:26:23;18.45;;;11.07;;
24407;SDS011;12542;50.924;4.516;2022-11-14T08:28:53;15.23;;;9.80;;
24407;SDS011;12542;50.924;4.516;2022-11-14T08:31:20;12.85;;;9.75;;
24407;SDS011;12542;50.924;4.516;2022-11-14T08:33:46;15.82;;;9.68;;
24407;SDS011;12542;50.924;4.516;2022-11-14T08:36:14;14.35;;;9.68;;
24407;SDS011;12542;50.924;4.516;2022-11-14T08:38:40;11.98;;;8.90;;
24407;SDS011;12542;50.924;4.516;2022-11-14T08:41:05;13.88;;;9.30;;
24407;SDS011;12542;50.924;4.516;2022-11-14T08:43:31;13.23;;;9.07;;
24407;SDS011;12542;50.924;4.516;2022-11-14T08:46:01;17.83;;;9.30;;
24407;SDS011;12542;50.924;4.516;2022-11-14T08:48:28;13.43;;;9.20;;
24407;SDS011;12542;50.924;4.516;2022-11-14T08:50:55;15.15;;;9.80;;
24407;SDS011;12542;50.924;4.516;2022-11-14T08:53:21;14.75;;;8.52;;
24407;SDS011;12542;50.924;4.516;2022-11-14T08:55:49;21.10;;;9.18;;
24407;SDS011;12542;50.924;4.516;2022-11-14T08:58:15;14.25;;;8.75;;
24407;SDS011;12542;50.924;4.516;2022-11-14T09:00:41;18.38;;;9.20;;
24407;SDS011;12542;50.924;4.516;2022-11-14T09:03:07;18.35;;;9.13;;
24407;SDS011;12542;50.924;4.516;2022-11-14T09:05:34;15.48;;;8.25;;
24407;SDS011;12542;50.924;4.516;2022-11-14T09:08:00;15.45;;;9.20;;
24407;SDS011;12542;50.924;4.516;2022-11-14T09:10:27;18.35;;;9.38;;
24407;SDS011;12542;50.924;4.516;2022-11-14T09:12:56;13.88;;;8.93;;
24407;SDS011;12542;50.924;4.516;2022-11-14T09:15:23;15.43;;;8.57;;
24407;SDS011;12542;50.924;4.516;2022-11-14T09:17:53;14.77;;;8.52;;
24407;SDS011;12542;50.924;4.516;2022-11-14T09:20:20;15.50;;;10.05;;
24407;SDS011;12542;50.924;4.516;2022-11-14T09:22:49;15.63;;;10.00;;
24407;SDS011;12542;50.924;4.516;2022-11-14T09:25:18;17.50;;;8.90;;
24407;SDS011;12542;50.924;4.516;2022-11-14T09:27:45;14.75;;;8.20;;
24407;SDS011;12542;50.924;4.516;2022-11-14T09:30:11;16.85;;;7.70;;
24407;SDS011;12542;50.924;4.516;2022-11-14T09:32:38;12.85;;;6.97;;
24407;SDS011;12542;50.924;4.516;2022-11-14T09:35:03;10.35;;;6.25;;
24407;SDS011;12542;50.924;4.516;2022-11-14T09:37:29;11.90;;;6.00;;
24407;SDS011;12542;50.924;4.516;2022-11-14T09:39:55;12.88;;;6.70;;
24407;SDS011;12542;50.924;4.516;2022-11-14T09:45:14;14.43;;;7.10;;
24407;SDS011;12542;50.924;4.516;2022-11-14T09:47:55;11.73;;;6.90;;
24407;SDS011;12542;50.924;4.516;2022-11-14T09:50:50;13.82;;;8.35;;
24407;SDS011;12542;50.924;4.516;2022-11-14T09:53:30;15.07;;;8.35;;
24407;SDS011;12542;50.924;4.516;2022-11-14T09:56:04;16.02;;;8.48;;
24407;SDS011;12542;50.924;4.516;2022-11-14T09:58:32;15.50;;;8.23;;
24407;SDS011;12542;50.924;4.516;2022-11-14T10:04:08;12.75;;;8.02;;
24407;SDS011;12542;50.924;4.516;2022-11-14T10:06:51;14.75;;;7.85;;
24407;SDS011;12542;50.924;4.516;2022-11-14T10:09:35;17.88;;;8.90;;
24407;SDS011;12542;50.924;4.516;2022-11-14T10:12:30;15.77;;;8.63;;
24407;SDS011;12542;50.924;4.516;2022-11-14T10:28:45;18.90;;;9.80;;
24407;SDS011;12542;50.924;4.516;2022-11-14T10:41:45;16.23;;;9.73;;
24407;SDS011;12542;50.924;4.516;2022-11-14T10:44:17;18.50;;;10.30;;
24407;SDS011;12542;50.924;4.516;2022-11-14T10:46:50;18.38;;;10.02;;
24407;SDS011;12542;50.924;4.516;2022-11-14T10:49:21;17.63;;;9.60;;
24407;SDS011;12542;50.924;4.516;2022-11-14T10:51:50;19.15;;;10.38;;
24407;SDS011;12542;50.924;4.516;2022-11-14T10:57:14;17.13;;;9.95;;
24407;SDS011;12542;50.924;4.516;2022-11-14T10:59:43;14.20;;;9.27;;
24407;SDS011;12542;50.924;4.516;2022-11-14T11:02:09;15.15;;;9.85;;
24407;SDS011;12542;50.924;4.516;2022-11-14T11:04:35;16.15;;;9.65;;
24407;SDS011;12542;50.924;4.516;2022-11-14T11:09:31;16.65;;;9.82;;
24407;SDS011;12542;50.924;4.516;2022-11-14T11:12:18;18.65;;;9.35;;
24407;SDS011;12542;50.924;4.516;2022-11-14T11:14:49;17.67;;;10.90;;
24407;SDS011;12542;50.924;4.516;2022-11-14T11:17:41;18.08;;;9.50;;
24407;SDS011;12542;50.924;4.516;2022-11-14T11:20:34;17.42;;;9.65;;
24407;SDS011;12542;50.924;4.516;2022-11-14T11:23:03;19.50;;;10.55;;
24407;SDS011;12542;50.924;4.516;2022-11-14T11:25:35;16.65;;;10.35;;
24407;SDS011;12542;50.924;4.516;2022-11-14T11:28:21;15.98;;;10.55;;
24407;SDS011;12542;50.924;4.516;2022-11-14T11:30:57;17.17;;;10.18;;
24407;SDS011;12542;50.924;4.516;2022-11-14T11:33:25;16.13;;;10.07;;
24407;SDS011;12542;50.924;4.516;2022-11-14T11:36:00;21.42;;;11.15;;
24407;SDS011;12542;50.924;4.516;2022-11-14T11:38:29;15.10;;;9.88;;
24407;SDS011;12542;50.924;4.516;2022-11-14T11:40:58;18.13;;;10.20;;
24407;SDS011;12542;50.924;4.516;2022-11-14T11:46:18;16.20;;;10.07;;
24407;SDS011;12542;50.924;4.516;2022-11-14T11:48:51;15.43;;;9.52;;
24407;SDS011;12542;50.924;4.516;2022-11-14T11:51:25;16.10;;;10.50;;
24407;SDS011;12542;50.924;4.516;2022-11-14T11:53:56;15.45;;;9.32;;
24407;SDS011;12542;50.924;4.516;2022-11-14T11:56:29;18.02;;;10.52;;
24407;SDS011;12542;50.924;4.516;2022-11-14T11:58:59;18.35;;;10.30;;
24407;SDS011;12542;50.924;4.516;2022-11-14T12:01:46;15.65;;;10.30;;
24407;SDS011;12542;50.924;4.516;2022-11-14T12:04:11;24.50;;;11.75;;
24407;SDS011;12542;50.924;4.516;2022-11-14T12:06:39;19.75;;;10.63;;
24407;SDS011;12542;50.924;4.516;2022-11-14T12:11:37;19.67;;;11.65;;
24407;SDS011;12542;50.924;4.516;2022-11-14T12:14:14;19.70;;;11.27;;
24407;SDS011;12542;50.924;4.516;2022-11-14T12:30:34;21.02;;;12.73;;
24407;SDS011;12542;50.924;4.516;2022-11-14T12:33:14;22.25;;;13.35;;
24407;SDS011;12542;50.924;4.516;2022-11-14T12:35:49;21.80;;;13.13;;
24407;SDS011;12542;50.924;4.516;2022-11-14T12:38:17;21.95;;;11.75;;
24407;SDS011;12542;50.924;4.516;2022-11-14T12:40:49;22.85;;;13.32;;
24407;SDS011;12542;50.924;4.516;2022-11-14T12:46:08;24.85;;;13.63;;
24407;SDS011;12542;50.924;4.516;2022-11-14T12:51:51;21.92;;;13.07;;
24407;SDS011;12542;50.924;4.516;2022-11-14T12:53:55;26.30;;;13.75;;
24407;SDS011;12542;50.924;4.516;2022-11-14T13:04:36;30.42;;;15.40;;
24407;SDS011;12542;50.924;4.516;2022-11-14T13:13:04;28.90;;;16.05;;
24407;SDS011;12542;50.924;4.516;2022-11-14T13:15:50;29.95;;;16.25;;
24407;SDS011;12542;50.924;4.516;2022-11-14T13:18:48;27.70;;;15.48;;
24407;SDS011;12542;50.924;4.516;2022-11-14T13:27:40;24.67;;;13.80;;
24407;SDS011;12542;50.924;4.516;2022-11-14T13:30:06;30.73;;;15.23;;
24407;SDS011;12542;50.924;4.516;2022-11-14T13:50:39;40.75;;;23.60;;
24407;SDS011;12542;50.924;4.516;2022-11-14T13:53:11;41.78;;;22.45;;
24407;SDS011;12542;50.924;4.516;2022-11-14T13:58:29;37.78;;;21.60;;
24407;SDS011;12542;50.924;4.516;2022-11-14T14:11:57;38.20;;;22.00;;
24407;SDS011;12542;50.924;4.516;2022-11-14T14:20:14;34.25;;;19.63;;
24407;SDS011;12542;50.924;4.516;2022-11-14T14:26:16;33.08;;;18.55;;
24407;SDS011;12542;50.924;4.516;2022-11-14T14:28:58;35.20;;;18.85;;
24407;SDS011;12542;50.924;4.516;2022-11-14T14:31:31;37.55;;;20.25;;
24407;SDS011;12542;50.924;4.516;2022-11-14T14:34:17;33.60;;;18.75;;
24407;SDS011;12542;50.924;4.516;2022-11-14T14:36:55;29.70;;;17.85;;
24407;SDS011;12542;50.924;4.516;2022-11-14T14:39:26;34.22;;;18.60;;
24407;SDS011;12542;50.924;4.516;2022-11-14T14:41:56;31.95;;;17.75;;
24407;SDS011;12542;50.924;4.516;2022-11-14T14:46:56;31.27;;;18.83;;
24407;SDS011;12542;50.924;4.516;2022-11-14T14:51:47;33.75;;;18.55;;
24407;SDS011;12542;50.924;4.516;2022-11-14T14:54:26;33.75;;;19.23;;
24407;SDS011;12542;50.924;4.516;2022-11-14T14:56:57;32.22;;;17.88;;
24407;SDS011;12542;50.924;4.516;2022-11-14T14:59:24;33.70;;;19.27;;
24407;SDS011;12542;50.924;4.516;2022-11-14T15:01:52;36.85;;;18.77;;
24407;SDS011;12542;50.924;4.516;2022-11-14T15:04:20;36.78;;;19.05;;
24407;SDS011;12542;50.924;4.516;2022-11-14T15:06:48;37.35;;;19.88;;
24407;SDS011;12542;50.924;4.516;2022-11-14T15:09:20;36.10;;;18.58;;
24407;SDS011;12542;50.924;4.516;2022-11-14T15:11:51;33.65;;;17.60;;
24407;SDS011;12542;50.924;4.516;2022-11-14T15:14:24;30.75;;;17.20;;
24407;SDS011;12542;50.924;4.516;2022-11-14T15:16:54;33.90;;;17.92;;
24407;SDS011;12542;50.924;4.516;2022-11-14T15:19:23;33.35;;;18.17;;
24407;SDS011;12542;50.924;4.516;2022-11-14T15:21:59;30.83;;;17.88;;
24407;SDS011;12542;50.924;4.516;2022-11-14T15:24:27;34.00;;;18.27;;
24407;SDS011;12542;50.924;4.516;2022-11-14T15:26:53;32.40;;;18.33;;
24407;SDS011;12542;50.924;4.516;2022-11-14T15:29:19;32.70;;;18.80;;
24407;SDS011;12542;50.924;4.516;2022-11-14T15:31:54;38.63;;;20.05;;
24407;SDS011;12542;50.924;4.516;2022-11-14T15:34:30;31.73;;;18.92;;
24407;SDS011;12542;50.924;4.516;2022-11-14T15:39:36;35.22;;;19.60;;
24407;SDS011;12542;50.924;4.516;2022-11-14T15:44:53;39.45;;;19.40;;
24407;SDS011;12542;50.924;4.516;2022-11-14T15:47:21;33.67;;;19.00;;
24407;SDS011;12542;50.924;4.516;2022-11-14T15:50:31;37.33;;;19.63;;
24407;SDS011;12542;50.924;4.516;2022-11-14T15:52:45;35.72;;;19.73;;
24407;SDS011;12542;50.924;4.516;2022-11-14T15:57:40;32.22;;;19.08;;
24407;SDS011;12542;50.924;4.516;2022-11-14T16:00:06;29.90;;;17.60;;
24407;SDS011;12542;50.924;4.516;2022-11-14T16:02:39;34.60;;;18.30;;
24407;SDS011;12542;50.924;4.516;2022-11-14T16:05:10;28.40;;;17.83;;
24407;SDS011;12542;50.924;4.516;2022-11-14T16:07:37;31.98;;;18.33;;
24407;SDS011;12542;50.924;4.516;2022-11-14T16:10:08;27.90;;;17.05;;
24407;SDS011;12542;50.924;4.516;2022-11-14T16:12:42;27.80;;;16.83;;
24407;SDS011;12542;50.924;4.516;2022-11-14T16:15:07;31.48;;;16.92;;
24407;SDS011;12542;50.924;4.516;2022-11-14T16:17:35;29.40;;;16.23;;
24407;SDS011;12542;50.924;4.516;2022-11-14T16:20:03;27.63;;;16.55;;
24407;SDS011;12542;50.924;4.516;2022-11-14T16:22:30;23.17;;;14.25;;
24407;SDS011;12542;50.924;4.516;2022-11-14T16:24:58;27.63;;;15.55;;
24407;SDS011;12542;50.924;4.516;2022-11-14T16:27:24;26.40;;;15.80;;
24407;SDS011;12542;50.924;4.516;2022-11-14T16:29:51;21.63;;;14.32;;
24407;SDS011;12542;50.924;4.516;2022-11-14T16:32:17;22.45;;;14.88;;
24407;SDS011;12542;50.924;4.516;2022-11-14T16:34:43;26.27;;;14.95;;
24407;SDS011;12542;50.924;4.516;2022-11-14T16:37:10;24.98;;;14.93;;
24407;SDS011;12542;50.924;4.516;2022-11-14T16:39:38;25.67;;;15.07;;
24407;SDS011;12542;50.924;4.516;2022-11-14T16:42:03;25.80;;;14.75;;
24407;SDS011;12542;50.924;4.516;2022-11-14T16:44:31;24.27;;;15.02;;
24407;SDS011;12542;50.924;4.516;2022-11-14T16:46:57;20.95;;;13.13;;
24407;SDS011;12542;50.924;4.516;2022-11-14T16:49:23;21.65;;;13.65;;
24407;SDS011;12542;50.924;4.516;2022-11-14T16:51:49;21.98;;;13.52;;
24407;SDS011;12542;50.924;4.516;2022-11-14T16:54:18;21.48;;;14.00;;
24407;SDS011;12542;50.924;4.516;2022-11-14T16:56:45;24.17;;;14.80;;
24407;SDS011;12542;50.924;4.516;2022-11-14T16:59:11;27.33;;;14.90;;